UUWW/VKO METAR and TAF weather

Enter ICAO airport designator
Station Type Date Time Source
UUWW METAR 2019/02/21 15:30 UTC NOAA

UUWW 211530Z 32010MPS 1500 1000W R01/1900U SHSN BLSN BKN013CB M06/M08 Q1001 WS R01 R01/450437 TEMPO 0700 +SHSN


Station Type Date Time Source
UUWW Decoded METAR 2019/02/21 15:30 UTC NOAA

Moscow / Vnukovo , Russia (UUWW) 55-39N 037-16E
Feb 21, 2019 - 10:30 AM EST / 2019.02.21 1530 UTC
Wind: from the NW (320 degrees) at 22 MPH (19 KT):0
Visibility: less than 1 mile:0
Sky conditions: mostly cloudy
Weather: snow showers; blowing snow; Cumulonimbus clouds observed
Temperature: 21 F (-6 C)
Windchill: 5 F (-15 C):1
Dew Point: 17 F (-8 C)
Relative Humidity: 85%
Pressure (altimeter): 29.56 in. Hg (1001 hPa)
ob: UUWW 211530Z 32010MPS 1500 1000W R01/1900U SHSN BLSN BKN013CB M06/M08 Q1001 WS R01 R01/450437 TEMPO 0700 +SHSN
cycle: 15

Station Type Date Time Source
UUWW TAF 2019/02/21 15:21 UTC NOAA

TAF UUWW 211350Z 2115/2215 32010G18MPS 3100 -SN OVC011 TXM05/2115Z TNM10/2206Z
TEMPO 2115/2206 0500 +SHSN BLSN BKN004 BKN015CB


Example: see airport list